createdAt,value
2019-04-20T00:16:18.916Z,0.00
2019-04-20T00:18:34.694Z,0.00
2019-04-20T00:19:33.655Z,0.00
2019-04-20T00:20:29.666Z,0.00
2019-04-20T00:21:26.872Z,0.00
2019-04-20T00:22:34.375Z,0.00
2019-04-20T00:23:33.509Z,0.00
2019-04-20T00:24:31.047Z,0.00
2019-04-20T00:29:56.188Z,0.00
2019-04-20T00:33:37.358Z,0.00
2019-04-20T00:34:28.289Z,0.00
2019-04-20T00:38:20.983Z,0.00
2019-04-20T00:39:20.198Z,0.00
2019-04-20T00:40:19.713Z,0.00
2019-04-20T00:41:22.103Z,0.00
2019-04-20T00:42:30.799Z,0.00
2019-04-20T00:43:26.481Z,0.00
2019-04-20T00:44:26.036Z,0.00
2019-04-20T00:45:25.735Z,0.00
2019-04-20T00:46:29.273Z,0.00
2019-04-20T00:47:34.427Z,0.00
2019-04-20T00:48:31.535Z,0.00
2019-04-20T00:49:36.059Z,0.00
2019-04-20T00:50:37.895Z,0.00
2019-04-20T00:51:35.336Z,0.00
2019-04-20T00:52:35.702Z,0.00
2019-04-20T00:53:30.364Z,0.00
2019-04-20T00:54:24.329Z,0.00
2019-04-20T00:56:18.262Z,0.00
2019-04-20T00:57:24.482Z,0.00
2019-04-20T00:58:27.058Z,0.00
2019-04-20T00:59:31.985Z,0.00
2019-04-20T01:00:37.143Z,0.00
2019-04-20T01:01:36.218Z,0.00
2019-04-20T01:02:29.915Z,0.00
2019-04-20T01:03:33.898Z,0.00
2019-04-20T01:04:38.779Z,0.00
2019-04-20T01:05:35.413Z,0.00
2019-04-20T01:06:31.571Z,0.00
2019-04-20T01:07:32.071Z,0.00
2019-04-20T01:08:19.098Z,0.00
2019-04-20T01:09:18.358Z,0.00
2019-04-20T01:10:19.338Z,0.00
2019-04-20T01:11:27.501Z,0.00
2019-04-20T01:12:24.141Z,0.00
2019-04-20T01:13:22.854Z,0.00
2019-04-20T01:14:30.270Z,0.00
2019-04-20T01:15:28.068Z,0.00
2019-04-20T01:16:30.664Z,0.00
2019-04-20T01:17:18.565Z,0.00
2019-04-20T01:18:18.392Z,0.00
2019-04-20T01:19:19.222Z,0.00
2019-04-20T01:20:18.451Z,0.00
2019-04-20T01:21:22.982Z,0.00
2019-04-20T01:22:22.401Z,0.00
2019-04-20T01:23:22.210Z,0.00
2019-04-20T01:24:24.858Z,0.00
2019-04-20T01:25:28.141Z,0.00
2019-04-20T01:44:43.880Z,0.00
2019-04-20T01:45:42.010Z,0.00
2019-04-20T01:50:49.906Z,0.00
2019-04-20T01:51:49.146Z,0.00
2019-04-20T01:52:51.835Z,0.00
2019-04-20T01:54:58.721Z,0.00
2019-04-20T01:55:55.398Z,0.00
2019-04-20T01:56:52.254Z,0.00
2019-04-20T02:20:05.511Z,0.00
2019-04-20T02:20:59.805Z,0.00
2019-04-20T02:22:55.352Z,0.00
2019-04-20T02:23:50.021Z,0.00
2019-04-20T02:24:42.684Z,0.00
2019-04-20T02:30:21.860Z,0.00
2019-04-20T03:02:23.696Z,0.00
2019-04-20T03:03:20.078Z,0.00
2019-04-20T03:04:20.585Z,0.00
2019-04-20T03:05:22.975Z,0.00
2019-04-20T03:06:19.589Z,0.00
2019-04-20T03:07:25.592Z,0.00
2019-04-20T03:08:22.218Z,0.00
2019-04-20T03:09:32.553Z,0.00
2019-04-20T03:10:33.955Z,0.00
2019-04-20T03:11:42.663Z,0.00
2019-04-20T03:12:33.166Z,0.00
2019-04-20T03:13:32.152Z,0.00
2019-04-20T03:14:29.298Z,0.00
2019-04-20T03:15:32.794Z,0.00
2019-04-20T03:16:24.266Z,0.00
2019-04-20T03:17:33.875Z,0.00
2019-04-20T03:18:25.325Z,0.00
2019-04-20T03:19:23.492Z,0.00
2019-04-20T03:20:27.103Z,0.00
2019-04-20T03:21:35.930Z,0.00
2019-04-20T03:23:35.327Z,0.00
2019-04-20T03:24:41.133Z,0.00
2019-04-20T03:25:31.599Z,0.00
2019-04-20T03:26:29.874Z,0.00
2019-04-20T04:07:40.597Z,0.00
2019-04-20T04:08:42.591Z,0.00
2019-04-20T04:09:46.712Z,0.00
2019-04-20T04:10:55.150Z,0.00
2019-04-20T04:15:42.592Z,0.00
2019-04-20T04:29:00.293Z,5.63
2019-04-20T04:30:03.315Z,5.63
2019-04-20T04:31:05.095Z,5.63
2019-04-20T04:32:15.403Z,5.63
2019-04-20T04:33:35.440Z,5.63
2019-04-20T04:34:02.373Z,11.25
2019-04-20T04:34:52.615Z,11.25
2019-04-20T04:35:56.853Z,11.25
2019-04-20T04:37:03.244Z,11.25
2019-04-20T04:38:02.244Z,11.25
2019-04-20T04:39:07.525Z,16.88
2019-04-20T04:40:19.585Z,16.88
2019-04-20T04:41:09.912Z,16.88
2019-04-20T04:42:10.245Z,16.88
2019-04-20T04:43:06.962Z,16.88
2019-04-20T04:44:53.670Z,22.50
2019-04-20T04:45:44.709Z,22.50
2019-04-20T04:46:52.204Z,22.50
2019-04-20T04:48:46.557Z,28.13
2019-04-20T04:49:50.262Z,28.13
2019-04-20T04:50:50.700Z,28.13
2019-04-20T04:51:53.522Z,28.13
2019-04-20T04:52:55.618Z,33.75
2019-04-20T04:53:52.992Z,33.75
2019-04-20T04:54:52.946Z,33.75
2019-04-20T04:55:52.299Z,33.75
2019-04-20T04:56:44.304Z,39.38
2019-04-20T04:57:43.867Z,39.38
2019-04-20T04:58:44.646Z,39.38
2019-04-20T04:59:44.558Z,45.00
2019-04-20T05:00:44.586Z,45.00
2019-04-20T05:01:48.873Z,45.00
2019-04-20T05:02:48.882Z,45.00
2019-04-20T05:04:10.605Z,50.63
2019-04-20T05:05:05.207Z,50.63
2019-04-20T05:06:00.459Z,50.63
2019-04-20T05:06:59.520Z,50.63
2019-04-20T05:07:58.435Z,56.25
2019-04-20T05:08:49.920Z,56.25
2019-04-20T05:09:44.383Z,56.25
2019-04-20T05:10:44.235Z,56.25
2019-04-20T05:11:44.763Z,61.88
2019-04-20T05:12:44.291Z,61.88
2019-04-20T05:13:50.872Z,61.88
2019-04-20T05:14:55.925Z,67.50
2019-04-20T05:15:58.390Z,67.50
2019-04-20T05:16:58.115Z,67.50
2019-04-20T05:18:07.322Z,67.50
2019-04-20T05:19:10.476Z,67.50
2019-04-20T05:20:03.645Z,73.13
2019-04-20T05:21:05.810Z,73.13
2019-04-20T05:22:09.705Z,73.13
2019-04-20T05:23:02.570Z,78.75
2019-04-20T05:24:06.156Z,78.75
2019-04-20T05:25:09.149Z,78.75
2019-04-20T05:26:07.897Z,78.75
2019-04-20T05:27:07.190Z,84.38
2019-04-20T05:45:32.324Z,106.88
2019-04-20T05:46:37.430Z,106.88
2019-04-20T06:02:29.120Z,118.13
2019-04-20T06:06:05.088Z,123.75
2019-04-20T06:06:59.668Z,123.75
2019-04-20T06:08:59.670Z,123.75
2019-04-20T06:13:52.402Z,129.38
2019-04-20T06:14:52.347Z,129.38
2019-04-20T06:15:53.835Z,135.00
2019-04-20T06:16:59.999Z,135.00
2019-04-20T06:17:53.197Z,135.00
2019-04-20T06:19:00.726Z,135.00
2019-04-20T06:20:00.248Z,135.00
2019-04-20T06:21:10.206Z,135.00
2019-04-20T06:22:04.004Z,140.63
2019-04-20T06:23:05.567Z,140.63
2019-04-20T06:25:04.557Z,140.63
2019-04-20T06:26:13.157Z,140.63
2019-04-20T06:27:01.026Z,140.63
2019-04-20T06:27:56.923Z,140.63
2019-04-20T06:28:52.958Z,140.63
2019-04-20T06:29:55.769Z,146.25
2019-04-20T06:30:52.776Z,146.25
2019-04-20T06:31:59.136Z,146.25
2019-04-20T06:34:13.257Z,146.25
2019-04-20T06:38:03.154Z,151.88
2019-04-20T06:39:08.013Z,151.88
2019-04-20T06:42:59.924Z,151.88
2019-04-20T06:45:01.773Z,157.50
2019-04-20T06:46:05.533Z,157.50
2019-04-20T07:05:33.121Z,168.75
2019-04-20T07:06:59.205Z,168.75
2019-04-20T07:07:40.390Z,168.75
2019-04-20T07:08:51.026Z,168.75
2019-04-20T07:09:48.402Z,174.38
2019-04-20T07:10:37.377Z,174.38
2019-04-20T07:11:35.911Z,180.00
2019-04-20T07:12:33.361Z,174.38
2019-04-20T07:13:27.155Z,174.38
2019-04-20T07:14:31.890Z,180.00
2019-04-20T07:16:35.836Z,180.00
2019-04-20T07:18:35.666Z,185.63
2019-04-20T07:20:48.580Z,185.63
2019-04-20T07:26:59.094Z,196.88
2019-04-20T07:27:35.331Z,196.88
2019-04-20T07:28:46.916Z,196.88
2019-04-20T07:35:30.571Z,208.13
2019-04-20T07:36:32.726Z,208.13
2019-04-20T07:42:34.608Z,219.38
2019-04-20T07:43:32.862Z,219.38
2019-04-20T07:44:34.279Z,225.00
2019-04-20T07:46:42.410Z,225.00
2019-04-20T07:48:27.900Z,225.00
2019-04-20T07:49:29.250Z,225.00
2019-04-20T07:50:26.167Z,225.00
2019-04-20T07:51:17.652Z,230.63
2019-04-20T07:52:10.276Z,230.63
2019-04-20T07:53:25.703Z,230.63
2019-04-20T07:54:38.618Z,236.25
2019-04-20T07:55:40.525Z,236.25
2019-04-20T07:56:36.029Z,236.25
2019-04-20T07:57:24.458Z,236.25
2019-04-20T07:58:23.059Z,241.88
2019-04-20T07:59:17.835Z,241.88
2019-04-20T08:00:38.253Z,241.88
2019-04-20T08:01:38.878Z,241.88
2019-04-20T08:04:30.053Z,247.50
2019-04-20T08:05:24.596Z,253.13
2019-04-20T08:07:13.656Z,253.13
2019-04-20T08:08:41.666Z,253.13
2019-04-20T08:09:22.178Z,258.75
2019-04-20T08:10:28.113Z,258.75
2019-04-20T08:11:31.767Z,258.75
2019-04-20T08:12:31.539Z,264.38
2019-04-20T08:14:32.017Z,264.38
2019-04-20T08:16:41.023Z,270.00
2019-04-20T08:17:40.420Z,270.00
2019-04-20T08:18:37.726Z,270.00
2019-04-20T08:19:30.171Z,270.00
2019-04-20T08:20:28.029Z,275.63
2019-04-20T08:21:28.749Z,275.63
2019-04-20T08:22:33.889Z,275.63
2019-04-20T08:23:29.864Z,275.63
2019-04-20T08:25:26.634Z,281.25
2019-04-20T08:26:18.233Z,281.25
2019-04-20T08:31:24.518Z,292.50
2019-04-20T08:32:30.091Z,292.50
2019-04-20T08:34:38.041Z,292.50
2019-04-20T08:35:32.144Z,298.13
2019-04-20T08:36:33.517Z,298.13
2019-04-20T08:42:49.726Z,298.13
2019-04-20T08:43:49.659Z,303.75
2019-04-20T08:44:56.914Z,303.75
2019-04-20T08:45:49.187Z,303.75
2019-04-20T08:48:46.321Z,309.38
2019-04-20T08:49:45.167Z,309.38
2019-04-20T08:51:51.249Z,315.00
2019-04-20T09:02:09.864Z,326.25
2019-04-20T09:03:12.965Z,326.25
2019-04-20T09:09:33.502Z,337.50
2019-04-20T09:11:21.851Z,337.50
2019-04-20T09:12:23.252Z,337.50
2019-04-20T09:13:19.746Z,337.50
2019-04-20T09:15:06.009Z,343.13
2019-04-20T09:16:06.582Z,343.13
2019-04-20T09:23:52.237Z,354.38
2019-04-20T09:24:57.654Z,354.38
2019-04-20T09:26:37.148Z,354.38
2019-04-20T09:27:29.255Z,354.38
2019-04-20T09:28:28.463Z,360.00
2019-04-20T09:29:34.559Z,360.00
2019-04-20T09:34:42.669Z,376.88
2019-04-20T09:35:41.586Z,388.13
2019-04-20T09:36:36.642Z,556.88
2019-04-20T09:37:43.381Z,1136.25
2019-04-20T09:38:36.641Z,1749.38
2019-04-20T09:39:30.459Z,2109.38
2019-04-20T09:40:44.886Z,2148.75
2019-04-20T09:42:22.012Z,2182.50
2019-04-20T09:43:21.799Z,2154.38
2019-04-20T09:44:26.792Z,2165.63
2019-04-20T09:45:27.743Z,2255.63
2019-04-20T09:46:22.275Z,2131.88
2019-04-20T09:47:27.444Z,1935.00
2019-04-20T09:48:31.774Z,1906.88
2019-04-20T09:50:37.722Z,2216.25
2019-04-20T09:51:40.225Z,2424.38
2019-04-20T09:52:37.790Z,2480.63
2019-04-20T09:53:34.980Z,2469.38
2019-04-20T09:54:40.394Z,2441.25
2019-04-20T09:55:33.541Z,2390.63
2019-04-20T09:56:36.060Z,2548.13
2019-04-20T09:57:37.934Z,2581.88
2019-04-20T09:58:38.121Z,2581.88
2019-04-20T09:59:46.417Z,2621.25
2019-04-20T10:00:45.033Z,2514.38
2019-04-20T10:01:31.201Z,2328.75
2019-04-20T10:02:27.810Z,2469.38
2019-04-20T10:03:22.629Z,2520.00
2019-04-20T10:04:23.801Z,2480.63
2019-04-20T10:05:23.297Z,2401.88
2019-04-20T10:06:24.706Z,2553.75
2019-04-20T10:07:28.958Z,2610.00
2019-04-20T10:08:23.800Z,2671.88
2019-04-20T10:09:31.326Z,2463.75
2019-04-20T10:10:31.384Z,2491.88
2019-04-20T10:11:23.638Z,2705.63
2019-04-20T10:12:23.908Z,2773.13
2019-04-20T10:13:22.625Z,2660.63
2019-04-20T10:14:22.703Z,2559.38
2019-04-20T10:15:25.035Z,2491.88
2019-04-20T10:16:23.837Z,2514.38
2019-04-20T10:17:23.542Z,2497.50
2019-04-20T10:18:23.729Z,2491.88
2019-04-20T10:19:29.998Z,2548.13
2019-04-20T10:20:30.833Z,2576.25
2019-04-20T10:21:23.612Z,2553.75
2019-04-20T10:22:23.072Z,2610.00
2019-04-20T10:23:24.735Z,2542.50
2019-04-20T10:25:24.478Z,2868.75
2019-04-20T10:29:05.892Z,2790.00
2019-04-20T10:30:06.203Z,2846.25
2019-04-20T10:31:06.460Z,2806.88
2019-04-20T10:32:07.955Z,2801.25
2019-04-20T10:33:06.096Z,2756.25
2019-04-20T10:34:07.403Z,2761.88
2019-04-20T10:35:06.574Z,2593.13
2019-04-20T10:36:06.226Z,2593.13
2019-04-20T10:37:06.285Z,2784.38
2019-04-20T10:38:07.505Z,2880.00
2019-04-20T10:39:06.683Z,2756.25
2019-04-20T10:40:06.814Z,2767.50
2019-04-20T10:41:13.930Z,2868.75
2019-04-20T10:42:07.997Z,2790.00
2019-04-20T10:43:08.063Z,2790.00
2019-04-20T10:44:07.173Z,2812.50
2019-04-20T10:45:06.660Z,2795.63
2019-04-20T10:46:07.003Z,2806.88
2019-04-20T10:47:07.241Z,2874.38
2019-04-20T10:48:06.812Z,2795.63
2019-04-20T10:49:08.331Z,2784.38
2019-04-20T10:50:09.123Z,2745.00
2019-04-20T10:51:08.243Z,2677.50
2019-04-20T10:52:07.595Z,2604.38
2019-04-20T10:55:08.379Z,2823.75
2019-04-20T10:56:07.502Z,2818.13
2019-04-20T10:57:07.822Z,2829.38
2019-04-20T10:58:07.469Z,2857.50
2019-04-20T10:59:07.742Z,2711.25
2019-04-20T11:00:07.952Z,2621.25
2019-04-20T11:01:07.530Z,2722.50
2019-04-20T11:02:07.938Z,2773.13
2019-04-20T11:03:08.058Z,2711.25
2019-04-20T11:04:08.461Z,2638.13
2019-04-20T11:05:08.658Z,2913.75
2019-04-20T11:06:08.970Z,2992.50
2019-04-20T11:07:08.286Z,2925.00
2019-04-20T11:08:08.515Z,2919.38
2019-04-20T11:12:08.311Z,2953.13
2019-04-20T11:13:09.527Z,3037.50
2019-04-20T11:14:15.577Z,3060.00
2019-04-20T11:15:08.454Z,2975.63
2019-04-20T11:16:08.519Z,3048.75
2019-04-20T11:17:08.688Z,2981.25
2019-04-20T11:18:11.327Z,2885.63
2019-04-20T11:19:09.436Z,2941.88
2019-04-20T11:20:09.689Z,2964.38
2019-04-20T11:21:09.167Z,2896.88
2019-04-20T11:22:08.512Z,2880.00
2019-04-20T11:23:08.570Z,3015.00
2019-04-20T11:24:09.982Z,3043.13
2019-04-20T11:25:08.646Z,2947.50
2019-04-20T11:26:08.723Z,2840.63
2019-04-20T11:27:09.934Z,2801.25
2019-04-20T11:28:10.120Z,2958.75
2019-04-20T11:29:08.847Z,3037.50
2019-04-20T11:31:10.138Z,2970.00
2019-04-20T11:32:09.649Z,3020.63
2019-04-20T11:33:11.934Z,3076.88
2019-04-20T11:35:21.332Z,2823.75
2019-04-20T11:36:10.619Z,2874.38
2019-04-20T11:37:11.050Z,2998.13
2019-04-20T11:38:13.354Z,2981.25
2019-04-20T11:39:09.356Z,2964.38
2019-04-20T11:40:10.795Z,3076.88
2019-04-20T11:41:17.675Z,3150.00
2019-04-20T11:42:09.987Z,3116.25
2019-04-20T11:43:09.561Z,3048.75
2019-04-20T11:44:09.645Z,2958.75
2019-04-20T11:45:10.887Z,2925.00
2019-04-20T11:46:09.916Z,2919.38
2019-04-20T11:47:10.610Z,2913.75
2019-04-20T11:48:09.817Z,2835.00
2019-04-20T11:49:09.917Z,2745.00
2019-04-20T11:53:11.296Z,2992.50
2019-04-20T11:55:10.913Z,3020.63
2019-04-20T11:58:10.331Z,2930.63
2019-04-20T11:59:12.358Z,2868.75
2019-04-20T12:07:55.442Z,2660.63
2019-04-20T12:11:53.323Z,2975.63
2019-04-20T12:12:44.301Z,3020.63
2019-04-20T12:13:40.704Z,2925.00
2019-04-20T12:14:40.912Z,2925.00
2019-04-20T12:15:41.359Z,2784.38
2019-04-20T12:16:41.653Z,2694.38
2019-04-20T12:17:41.771Z,2806.88
2019-04-20T12:18:40.625Z,2936.25
2019-04-20T12:19:41.749Z,3009.38
2019-04-20T12:20:40.894Z,2891.25
2019-04-20T12:21:40.927Z,2863.13
2019-04-20T12:22:42.082Z,2818.13
2019-04-20T12:23:42.237Z,2795.63
2019-04-20T12:24:42.262Z,2778.75
2019-04-20T12:25:42.774Z,2778.75
2019-04-20T12:26:41.041Z,2767.50
2019-04-20T12:27:47.490Z,2868.75
2019-04-20T12:28:41.145Z,3031.88
2019-04-20T12:29:41.195Z,2913.75
2019-04-20T12:30:41.925Z,3048.75
2019-04-20T12:31:44.306Z,3054.38
2019-04-20T12:32:44.852Z,2975.63
2019-04-20T12:33:42.280Z,2829.38
2019-04-20T12:34:41.463Z,2880.00
2019-04-20T12:35:42.539Z,2925.00
2019-04-20T12:36:42.769Z,2992.50
2019-04-20T12:37:43.048Z,3048.75
2019-04-20T12:38:41.669Z,3054.38
2019-04-20T12:39:42.890Z,2986.88
2019-04-20T12:40:42.065Z,2891.25
2019-04-20T12:41:48.014Z,2941.88
2019-04-20T12:42:43.178Z,2981.25
2019-04-20T12:43:41.934Z,2947.50
2019-04-20T12:44:43.781Z,2913.75
2019-04-20T12:45:42.135Z,2953.13
2019-04-20T12:46:42.092Z,3009.38
2019-04-20T12:47:42.146Z,2930.63
2019-04-20T12:48:42.200Z,3009.38
2019-04-20T12:49:43.360Z,2936.25
2019-04-20T12:50:43.639Z,2970.00
2019-04-20T12:51:50.619Z,3048.75
2019-04-20T12:52:42.412Z,3009.38
2019-04-20T12:53:42.628Z,2874.38
2019-04-20T12:54:44.499Z,2885.63
2019-04-20T12:55:42.568Z,2953.13
2019-04-20T12:56:42.622Z,3009.38
2019-04-20T12:57:42.829Z,3060.00
2019-04-20T12:58:43.539Z,2947.50
2019-04-20T12:59:45.568Z,2902.50
2019-04-20T13:00:43.731Z,2998.13
2019-04-20T13:01:43.738Z,2947.50
2019-04-20T13:02:43.265Z,2868.75
2019-04-20T13:03:43.505Z,2857.50
2019-04-20T13:04:43.565Z,2823.75
2019-04-20T13:05:43.632Z,2857.50
2019-04-20T13:06:43.138Z,2818.13
2019-04-20T13:07:47.852Z,2733.75
2019-04-20T13:08:49.904Z,2767.50
2019-04-20T13:09:44.303Z,2745.00
2019-04-20T13:10:44.467Z,2649.38
2019-04-20T13:11:49.471Z,2767.50
2019-04-20T13:12:44.621Z,2773.13
2019-04-20T13:13:44.219Z,2790.00
2019-04-20T13:14:44.378Z,2806.88
2019-04-20T13:15:44.529Z,2863.13
2019-04-20T13:16:44.078Z,2812.50
2019-04-20T13:17:44.338Z,2756.25
2019-04-20T13:18:43.764Z,2615.63
2019-04-20T13:19:45.053Z,2716.88
2019-04-20T13:20:43.979Z,2677.50
2019-04-20T13:21:45.104Z,2655.00
2019-04-20T13:22:44.312Z,2728.13
2019-04-20T13:23:44.906Z,2643.75
2019-04-20T13:24:45.213Z,2598.75
2019-04-20T13:25:44.132Z,2677.50
2019-04-20T13:26:44.891Z,2610.00
2019-04-20T13:27:45.034Z,2626.88
2019-04-20T13:28:44.291Z,2581.88
2019-04-20T13:29:47.442Z,2503.13
2019-04-20T13:30:44.398Z,2581.88
2019-04-20T13:31:44.446Z,2655.00
2019-04-20T13:32:45.736Z,2705.63
2019-04-20T13:33:45.326Z,2745.00
2019-04-20T13:34:44.611Z,2790.00
2019-04-20T13:35:45.866Z,2716.88
2019-04-20T13:36:44.706Z,2683.13
2019-04-20T13:37:45.273Z,2700.00
2019-04-20T13:38:45.864Z,2660.63
2019-04-20T13:39:44.886Z,2553.75
2019-04-20T13:40:45.960Z,2486.25
2019-04-20T13:41:58.814Z,2598.75
2019-04-20T13:42:45.621Z,2632.50
2019-04-20T13:43:45.989Z,2711.25
2019-04-20T13:44:45.267Z,2705.63
2019-04-20T13:45:45.172Z,2790.00
2019-04-20T13:46:45.224Z,2773.13
2019-04-20T13:47:45.299Z,2716.88
2019-04-20T13:48:46.755Z,2722.50
2019-04-20T13:49:45.382Z,2711.25
2019-04-20T13:50:46.397Z,2643.75
2019-04-20T13:51:46.565Z,2638.13
2019-04-20T13:52:45.623Z,2671.88
2019-04-20T13:53:45.590Z,2711.25
2019-04-20T13:54:45.664Z,2604.38
2019-04-20T13:55:45.764Z,2615.63
2019-04-20T13:56:45.920Z,2688.75
2019-04-20T13:57:46.140Z,2705.63
2019-04-20T13:58:45.854Z,2666.25
2019-04-20T13:59:46.205Z,2576.25
2019-04-20T14:00:48.603Z,2542.50
2019-04-20T14:01:46.648Z,2520.00
2019-04-20T14:02:46.760Z,2553.75
2019-04-20T14:03:47.095Z,2531.25
2019-04-20T14:04:46.539Z,2531.25
2019-04-20T14:05:46.777Z,2463.75
2019-04-20T14:06:47.625Z,2576.25
2019-04-20T14:07:47.226Z,2660.63
2019-04-20T14:08:47.380Z,2610.00
2019-04-20T14:09:47.729Z,2525.63
2019-04-20T14:10:47.279Z,2536.88
2019-04-20T14:11:47.494Z,2559.38
2019-04-20T14:12:57.262Z,2531.25
2019-04-20T14:13:53.627Z,2475.00
2019-04-20T14:14:46.961Z,2475.00
2019-04-20T14:15:47.152Z,2390.63
2019-04-20T14:16:47.371Z,2272.50
2019-04-20T14:17:47.014Z,2154.38
2019-04-20T14:18:47.171Z,2176.88
2019-04-20T14:19:47.420Z,2255.63
2019-04-20T14:20:47.935Z,2328.75
2019-04-20T14:21:48.144Z,2430.00
2019-04-20T14:22:47.317Z,2469.38
2019-04-20T14:23:47.180Z,2559.38
2019-04-20T14:24:47.232Z,2570.63
2019-04-20T14:25:47.283Z,2486.25
2019-04-20T14:26:48.458Z,2475.00
2019-04-20T14:27:48.482Z,2463.75
2019-04-20T14:28:47.444Z,2458.13
2019-04-20T14:29:48.646Z,2413.13
2019-04-20T14:30:47.844Z,2435.63
2019-04-20T14:31:48.039Z,2379.38
2019-04-20T14:32:48.192Z,2306.25
2019-04-20T14:33:48.768Z,2323.13
2019-04-20T14:34:48.946Z,2345.63
2019-04-20T14:35:48.432Z,2289.38
2019-04-20T14:36:48.812Z,2221.88
2019-04-20T14:37:47.916Z,2238.75
2019-04-20T14:38:48.707Z,2272.50
2019-04-20T14:39:48.113Z,2188.13
2019-04-20T14:40:48.438Z,2176.88
2019-04-20T14:41:48.610Z,2233.13
2019-04-20T14:42:51.687Z,2205.00
2019-04-20T14:43:48.965Z,2182.50
2019-04-20T14:44:48.284Z,2115.00
2019-04-20T14:45:48.336Z,2086.88
2019-04-20T14:46:49.603Z,2086.88
2019-04-20T14:47:49.863Z,2047.50
2019-04-20T14:48:49.005Z,2081.25
2019-04-20T14:49:48.709Z,2120.63
2019-04-20T14:50:49.717Z,2120.63
2019-04-20T14:51:49.879Z,2160.00
2019-04-20T14:52:49.342Z,2137.50
2019-04-20T14:53:49.494Z,2143.13
2019-04-20T14:54:49.771Z,2171.25
2019-04-20T14:55:49.303Z,2126.25
2019-04-20T14:56:49.542Z,2143.13
2019-04-20T14:57:49.837Z,2092.50
2019-04-20T14:58:49.331Z,2103.75
2019-04-20T14:59:49.536Z,2058.75
2019-04-20T15:00:51.788Z,2098.13
2019-04-20T15:01:50.396Z,2182.50
2019-04-20T15:02:49.997Z,2210.63
2019-04-20T15:03:58.879Z,2182.50
2019-04-20T15:04:50.474Z,2047.50
2019-04-20T15:05:49.378Z,1940.63
2019-04-20T15:06:50.537Z,1811.25
2019-04-20T15:07:50.640Z,1676.25
2019-04-20T15:08:50.447Z,1608.75
2019-04-20T15:09:50.918Z,1524.38
2019-04-20T15:10:49.634Z,1473.75
2019-04-20T15:11:50.751Z,1456.88
2019-04-20T15:12:55.822Z,1406.25
2019-04-20T15:13:50.844Z,1350.00
2019-04-20T15:14:50.414Z,1327.50
2019-04-20T15:15:50.685Z,1288.13
2019-04-20T15:16:50.879Z,1254.38
2019-04-20T15:17:51.252Z,1226.25
2019-04-20T15:18:51.851Z,1226.25
2019-04-20T15:19:50.092Z,1209.38
2019-04-20T15:20:51.298Z,1192.50
2019-04-20T15:21:51.343Z,1203.75
2019-04-20T15:22:51.548Z,1209.38
2019-04-20T15:23:51.221Z,1181.25
2019-04-20T15:24:51.579Z,1175.63
2019-04-20T15:25:50.668Z,1175.63
2019-04-20T15:26:50.445Z,1136.25
2019-04-20T15:27:50.496Z,1136.25
2019-04-20T15:28:50.545Z,1130.63
2019-04-20T15:29:50.599Z,1125.00
2019-04-20T15:30:52.039Z,1119.38
2019-04-20T15:31:50.695Z,1113.75
2019-04-20T15:32:52.244Z,1113.75
2019-04-20T15:33:50.906Z,1102.50
2019-04-20T15:34:50.979Z,1091.25
2019-04-20T15:35:52.392Z,1085.63
2019-04-20T15:36:51.974Z,1074.38
2019-04-20T15:37:51.105Z,1063.13
2019-04-20T15:38:51.404Z,1063.13
2019-04-20T15:39:51.093Z,1057.50
2019-04-20T15:40:51.177Z,1057.50
2019-04-20T15:41:51.505Z,1046.25
2019-04-20T15:42:59.002Z,1035.00
2019-04-20T15:43:51.293Z,1035.00
2019-04-20T15:44:51.499Z,1029.38
2019-04-20T15:45:51.689Z,1012.50
2019-04-20T15:46:51.440Z,1012.50
2019-04-20T15:47:52.178Z,1012.50
2019-04-20T15:48:52.381Z,1018.13
2019-04-20T15:49:51.749Z,1023.75
2019-04-20T15:50:51.970Z,1012.50
2019-04-20T15:51:52.175Z,990.00
2019-04-20T15:52:54.439Z,990.00
2019-04-20T15:53:51.785Z,1006.88
2019-04-20T15:54:51.889Z,1001.25
2019-04-20T15:55:52.352Z,984.38
2019-04-20T15:56:56.987Z,978.75
2019-04-20T15:57:53.326Z,973.13
2019-04-20T15:58:52.528Z,978.75
2019-04-20T15:59:52.707Z,1001.25
2019-04-20T16:00:52.821Z,984.38
2019-04-20T16:01:53.382Z,961.88
2019-04-20T16:02:53.575Z,950.63
2019-04-20T16:03:53.157Z,939.38
2019-04-20T16:05:53.382Z,939.38
2019-04-20T16:06:52.987Z,939.38
2019-04-20T16:07:56.966Z,939.38
2019-04-20T16:08:52.522Z,939.38
2019-04-20T16:09:52.571Z,939.38
2019-04-20T16:10:53.120Z,956.25
2019-04-20T16:11:53.035Z,973.13
2019-04-20T16:13:04.813Z,984.38
2019-04-20T16:13:54.296Z,1018.13
2019-04-20T16:14:53.532Z,1057.50
2019-04-20T16:15:53.794Z,1085.63
2019-04-20T16:16:52.911Z,1141.88
2019-04-20T16:17:53.359Z,1288.13
2019-04-20T16:18:53.008Z,1389.38
2019-04-20T16:20:00.927Z,1456.88
2019-04-20T16:21:01.634Z,1546.88
2019-04-20T16:21:53.994Z,1586.25
2019-04-20T16:22:54.367Z,1575.00
2019-04-20T16:23:54.699Z,1575.00
2019-04-20T16:24:53.724Z,1535.63
2019-04-20T16:25:53.445Z,1462.50
2019-04-20T16:26:53.742Z,1434.38
2019-04-20T16:27:53.844Z,1434.38
2019-04-20T16:28:53.610Z,1406.25
2019-04-20T16:29:53.535Z,1378.13
2019-04-20T16:30:53.838Z,1395.00
2019-04-20T16:31:54.359Z,1372.50
2019-04-20T16:32:54.609Z,1333.13
2019-04-20T16:33:57.415Z,1299.38
2019-04-20T16:34:53.773Z,1282.50
2019-04-20T16:35:54.316Z,1276.88
2019-04-20T16:36:56.359Z,1271.25
2019-04-20T16:37:53.924Z,1265.63
2019-04-20T16:38:55.315Z,1231.88
2019-04-20T16:39:54.667Z,1220.63
2019-04-20T16:40:54.635Z,1203.75
2019-04-20T16:41:54.105Z,1164.38
2019-04-20T16:42:54.380Z,1136.25
2019-04-20T16:44:54.246Z,1113.75
2019-04-20T16:45:55.080Z,1113.75
2019-04-20T16:46:54.385Z,1125.00
2019-04-20T16:47:54.545Z,1141.88
2019-04-20T16:48:54.956Z,1153.13
2019-04-20T16:49:55.035Z,1136.25
2019-04-20T16:50:55.178Z,1147.50
2019-04-20T16:51:54.861Z,1130.63
2019-04-20T16:52:54.973Z,1113.75
2019-04-20T16:53:56.040Z,1119.38
2019-04-20T16:54:55.570Z,1108.13
2019-04-20T16:55:54.802Z,1113.75
2019-04-20T16:56:55.066Z,1108.13
2019-04-20T16:59:01.471Z,1074.38
2019-04-20T16:59:57.784Z,1051.88
2019-04-20T17:00:55.915Z,1029.38
2019-04-20T17:01:56.182Z,1006.88
2019-04-20T17:02:56.269Z,883.13
2019-04-20T17:04:04.785Z,562.50
2019-04-20T17:04:56.559Z,376.88
2019-04-20T17:05:55.946Z,337.50
2019-04-20T17:06:56.001Z,309.38
2019-04-20T17:07:55.491Z,292.50
2019-04-20T17:08:56.547Z,275.63
2019-04-20T17:09:55.968Z,264.38
2019-04-20T17:10:55.940Z,253.13
2019-04-20T17:11:55.484Z,241.88
2019-04-20T17:12:55.729Z,230.63
2019-04-20T17:13:58.267Z,219.38
2019-04-20T17:14:55.936Z,213.75
2019-04-20T17:15:55.660Z,208.13
2019-04-20T17:16:55.714Z,196.88
2019-04-20T17:17:57.510Z,191.25
2019-04-20T17:18:55.787Z,185.63
2019-04-20T17:19:55.831Z,180.00
2019-04-20T17:20:56.738Z,174.38
2019-04-20T17:21:57.265Z,168.75
2019-04-20T17:22:56.299Z,163.13
2019-04-20T17:23:57.605Z,163.13
2019-04-20T17:24:56.044Z,157.50
2019-04-20T17:25:56.083Z,157.50
2019-04-20T17:26:57.048Z,151.88
2019-04-20T17:27:57.286Z,146.25
2019-04-20T17:28:57.633Z,140.63
2019-04-20T17:29:56.690Z,140.63
2019-04-20T17:30:56.787Z,135.00
2019-04-20T17:31:57.728Z,135.00
2019-04-20T17:32:57.792Z,129.38
2019-04-20T17:34:07.651Z,129.38
2019-04-20T17:35:10.553Z,123.75
2019-04-20T17:36:04.527Z,118.13
2019-04-20T17:36:56.893Z,118.13
2019-04-20T17:37:56.573Z,112.50
2019-04-20T17:39:00.590Z,112.50
2019-04-20T17:40:19.032Z,106.88
2019-04-20T17:41:15.248Z,106.88
2019-04-20T17:42:14.663Z,101.25
2019-04-20T17:43:07.512Z,95.63
2019-04-20T17:44:17.343Z,95.63
2019-04-20T17:45:04.786Z,90.00
2019-04-20T17:46:06.826Z,84.38
2019-04-20T17:47:09.854Z,84.38
2019-04-20T17:48:08.937Z,78.75
2019-04-20T17:49:14.151Z,78.75
2019-04-20T17:50:18.884Z,73.13
2019-04-20T17:51:19.346Z,73.13
2019-04-20T17:52:21.053Z,67.50
2019-04-20T17:53:08.904Z,67.50
2019-04-20T17:54:03.140Z,61.88
2019-04-20T17:54:57.771Z,67.50
2019-04-20T18:00:07.033Z,50.63
2019-04-20T18:02:17.506Z,45.00
2019-04-20T18:04:34.447Z,39.38
2019-04-20T18:05:28.386Z,39.38
2019-04-20T18:06:19.897Z,33.75
2019-04-20T18:07:28.193Z,33.75
2019-04-20T18:08:28.022Z,33.75
2019-04-20T18:09:25.555Z,28.13